createdAt,value
2018-06-30T00:00:47.946Z,15.20
2018-06-30T00:03:16.685Z,15.00
2018-06-30T00:05:44.950Z,14.90
2018-06-30T00:08:13.195Z,14.80
2018-06-30T00:10:41.444Z,14.90
2018-06-30T00:13:09.708Z,15.00
2018-06-30T00:15:37.955Z,15.00
2018-06-30T00:18:06.236Z,15.10
2018-06-30T00:20:34.567Z,15.10
2018-06-30T00:23:02.816Z,15.10
2018-06-30T00:25:31.059Z,15.10
2018-06-30T00:27:59.327Z,15.10
2018-06-30T00:30:27.571Z,15.00
2018-06-30T00:32:56.615Z,14.90
2018-06-30T00:35:24.853Z,14.90
2018-06-30T00:37:53.093Z,14.90
2018-06-30T00:40:21.337Z,15.00
2018-06-30T00:42:49.582Z,15.00
2018-06-30T00:45:17.835Z,14.90
2018-06-30T00:47:46.103Z,14.80
2018-06-30T00:50:14.386Z,14.80
2018-06-30T00:52:42.629Z,14.90
2018-06-30T00:55:10.867Z,14.80
2018-06-30T00:57:39.118Z,14.80
2018-06-30T01:00:07.383Z,14.80
2018-06-30T01:02:35.617Z,14.80
2018-06-30T01:05:03.887Z,14.80
2018-06-30T01:07:32.171Z,14.60
2018-06-30T01:10:00.427Z,14.50
2018-06-30T01:12:29.024Z,14.60
2018-06-30T01:14:57.313Z,14.60
2018-06-30T01:17:25.603Z,14.60
2018-06-30T01:22:21.858Z,14.60
2018-06-30T01:24:50.109Z,14.50
2018-06-30T01:27:18.392Z,14.40
2018-06-30T01:29:46.708Z,14.30
2018-06-30T01:32:14.991Z,14.20
2018-06-30T01:34:43.330Z,14.20
2018-06-30T01:37:11.586Z,14.10
2018-06-30T01:39:39.862Z,14.10
2018-06-30T01:42:08.134Z,14.00
2018-06-30T01:44:36.410Z,14.00
2018-06-30T01:47:05.449Z,14.10
2018-06-30T01:49:33.709Z,14.00
2018-06-30T01:52:02.079Z,14.10
2018-06-30T01:56:58.346Z,14.00
2018-06-30T01:59:26.611Z,13.90
2018-06-30T02:01:54.899Z,13.80
2018-06-30T02:04:23.158Z,13.80
2018-06-30T02:06:51.418Z,13.90
2018-06-30T02:09:19.690Z,13.90
2018-06-30T02:11:47.952Z,13.90
2018-06-30T02:14:16.227Z,13.80
2018-06-30T02:16:44.496Z,13.80
2018-06-30T02:19:12.767Z,13.70
2018-06-30T02:21:41.039Z,13.70
2018-06-30T02:24:09.312Z,13.70
2018-06-30T02:26:37.583Z,13.60
2018-06-30T02:29:05.871Z,13.60
2018-06-30T02:31:34.134Z,13.70
2018-06-30T02:34:02.399Z,13.60
2018-06-30T02:36:30.695Z,13.60
2018-06-30T02:38:59.072Z,13.60
2018-06-30T02:43:55.492Z,13.60
2018-06-30T02:46:23.764Z,13.50
2018-06-30T02:48:52.030Z,13.50
2018-06-30T02:51:20.361Z,13.50
2018-06-30T02:53:48.655Z,13.60
2018-06-30T02:56:16.928Z,13.70
2018-06-30T02:58:45.190Z,13.70
2018-06-30T03:03:41.466Z,13.60
2018-06-30T03:06:09.747Z,13.50
2018-06-30T03:08:38.100Z,13.40
2018-06-30T03:11:06.443Z,13.40
2018-06-30T03:13:34.714Z,13.30
2018-06-30T03:16:03.006Z,13.20
2018-06-30T03:18:31.267Z,13.10
2018-06-30T03:20:59.530Z,13.10
2018-06-30T03:23:27.794Z,13.00
2018-06-30T03:25:56.055Z,13.00
2018-06-30T03:28:24.338Z,13.00
2018-06-30T03:30:52.601Z,13.00
2018-06-30T03:33:20.929Z,13.00
2018-06-30T03:35:49.199Z,13.10
2018-06-30T03:38:17.569Z,13.00
2018-06-30T03:40:45.827Z,13.00
2018-06-30T03:43:14.090Z,13.10
2018-06-30T03:45:42.367Z,13.20
2018-06-30T03:48:10.652Z,13.30
2018-06-30T03:50:38.983Z,13.30
2018-06-30T03:53:07.253Z,13.40
2018-06-30T03:55:35.547Z,13.40
2018-06-30T03:58:03.838Z,13.40
2018-06-30T04:00:32.122Z,13.40
2018-06-30T04:03:00.396Z,13.40
2018-06-30T04:05:28.663Z,13.40
2018-06-30T04:10:24.923Z,13.40
2018-06-30T04:12:53.178Z,13.40
2018-06-30T04:15:21.461Z,13.40
2018-06-30T04:17:49.742Z,13.50
2018-06-30T04:20:18.022Z,13.60
2018-06-30T04:22:46.510Z,13.60
2018-06-30T04:25:14.834Z,13.70
2018-06-30T04:27:43.191Z,13.80
2018-06-30T04:30:11.513Z,13.90
2018-06-30T04:32:39.815Z,14.10
2018-06-30T04:35:08.155Z,14.20
2018-06-30T04:37:36.451Z,14.40
2018-06-30T04:40:05.040Z,14.50
2018-06-30T04:42:33.495Z,14.80
2018-06-30T04:45:02.074Z,14.90
2018-06-30T04:47:30.909Z,15.20
2018-06-30T04:50:00.221Z,15.30
2018-06-30T04:52:29.462Z,15.50
2018-06-30T04:54:57.730Z,15.80
2018-06-30T04:57:26.070Z,15.90
2018-06-30T04:59:54.644Z,16.10
2018-06-30T05:02:23.038Z,16.30
2018-06-30T05:04:51.317Z,16.40
2018-06-30T05:07:19.593Z,16.60
2018-06-30T05:09:47.857Z,16.80
2018-06-30T05:12:16.119Z,16.90
2018-06-30T05:14:44.493Z,17.10
2018-06-30T05:17:12.782Z,17.20
2018-06-30T05:19:41.056Z,17.40
2018-06-30T05:22:09.334Z,17.40
2018-06-30T05:24:37.591Z,17.50
2018-06-30T05:27:06.454Z,17.60
2018-06-30T05:29:34.791Z,17.80
2018-06-30T05:32:03.172Z,17.80
2018-06-30T05:34:31.475Z,17.90
2018-06-30T05:36:59.763Z,18.10
2018-06-30T05:39:28.034Z,18.20
2018-06-30T05:41:56.388Z,18.30
2018-06-30T05:44:24.642Z,18.40
2018-06-30T05:46:52.966Z,18.50
2018-06-30T05:49:21.301Z,18.70
2018-06-30T05:51:49.592Z,18.90
2018-06-30T05:54:18.176Z,19.10
2018-06-30T05:56:46.454Z,19.50
2018-06-30T05:59:14.757Z,19.70
2018-06-30T06:01:43.259Z,19.80
2018-06-30T06:04:11.526Z,20.30
2018-06-30T06:06:39.792Z,20.70
2018-06-30T06:09:09.510Z,20.80
2018-06-30T06:14:06.023Z,21.90
2018-06-30T06:16:34.286Z,22.60
2018-06-30T06:19:02.572Z,23.00
2018-06-30T06:21:30.912Z,23.50
2018-06-30T06:23:59.193Z,24.40
2018-06-30T06:26:27.612Z,25.50
2018-06-30T06:28:55.943Z,25.70
2018-06-30T06:31:24.233Z,26.30
2018-06-30T06:33:52.487Z,26.90
2018-06-30T06:36:20.756Z,27.40
2018-06-30T06:38:49.244Z,26.70
2018-06-30T06:41:17.514Z,27.40
2018-06-30T06:43:45.801Z,27.40
2018-06-30T06:46:14.063Z,27.50
2018-06-30T06:48:42.326Z,28.00
2018-06-30T06:51:10.591Z,28.50
2018-06-30T06:53:38.874Z,28.80
2018-06-30T06:56:10.437Z,28.60
2018-06-30T06:58:41.076Z,29.10
2018-06-30T07:01:09.487Z,29.00
2018-06-30T07:03:37.803Z,29.30
2018-06-30T07:06:06.190Z,29.40
2018-06-30T07:08:34.457Z,29.20
2018-06-30T07:11:02.751Z,29.40
2018-06-30T07:13:31.023Z,29.60
2018-06-30T07:15:59.315Z,29.90
2018-06-30T07:18:27.669Z,30.40
2018-06-30T07:20:56.024Z,30.60
2018-06-30T07:23:24.362Z,30.80
2018-06-30T07:25:53.372Z,30.90
2018-06-30T07:28:21.675Z,30.80
2018-06-30T07:30:49.960Z,30.90
2018-06-30T07:33:18.240Z,31.30
2018-06-30T07:35:46.519Z,31.30
2018-06-30T07:38:14.994Z,31.60
2018-06-30T07:40:43.452Z,31.70
2018-06-30T07:45:39.842Z,32.70
2018-06-30T07:48:08.146Z,33.10
2018-06-30T07:50:37.132Z,32.70
2018-06-30T07:53:05.695Z,33.20
2018-06-30T07:55:36.005Z,33.30
2018-06-30T07:58:04.491Z,33.60
2018-06-30T08:00:32.763Z,33.70
2018-06-30T08:03:01.472Z,34.10
2018-06-30T08:05:29.789Z,34.50
2018-06-30T08:07:58.979Z,35.00
2018-06-30T08:10:28.061Z,34.30
2018-06-30T08:12:56.341Z,34.90
2018-06-30T08:15:24.605Z,35.10
2018-06-30T08:17:52.899Z,35.00
2018-06-30T08:20:21.207Z,35.70
2018-06-30T08:22:49.524Z,35.90
2018-06-30T08:25:17.794Z,36.30
2018-06-30T08:27:46.100Z,35.90
2018-06-30T08:30:14.386Z,36.80
2018-06-30T08:32:42.698Z,36.00
2018-06-30T08:35:11.460Z,36.10
2018-06-30T08:37:39.873Z,35.80
2018-06-30T08:40:08.634Z,36.60
2018-06-30T08:42:36.921Z,36.10
2018-06-30T08:45:05.424Z,36.60
2018-06-30T08:47:33.728Z,37.20
2018-06-30T08:50:02.054Z,36.80
2018-06-30T08:52:30.354Z,36.40
2018-06-30T08:54:58.684Z,36.80
2018-06-30T08:57:26.947Z,37.10
2018-06-30T08:59:55.263Z,37.80
2018-06-30T09:02:23.538Z,38.30
2018-06-30T09:04:51.838Z,37.80
2018-06-30T09:07:20.170Z,37.10
2018-06-30T09:09:48.446Z,36.60
2018-06-30T09:12:16.899Z,36.70
2018-06-30T09:14:45.326Z,37.00
2018-06-30T09:17:13.684Z,37.30
2018-06-30T09:19:41.975Z,37.00
2018-06-30T09:22:10.230Z,37.50
2018-06-30T09:24:38.574Z,37.90
2018-06-30T09:29:34.903Z,37.50
2018-06-30T09:32:03.128Z,38.00
2018-06-30T09:34:31.510Z,37.90
2018-06-30T09:36:59.797Z,38.00
2018-06-30T09:39:28.083Z,38.20
2018-06-30T09:41:56.358Z,38.60
2018-06-30T09:44:24.850Z,38.50
2018-06-30T09:46:53.422Z,38.30
2018-06-30T09:49:23.678Z,37.10
2018-06-30T09:51:53.942Z,37.60
2018-06-30T09:54:24.397Z,38.60
2018-06-30T09:56:53.934Z,38.90
2018-06-30T09:59:22.531Z,39.20
2018-06-30T10:01:51.526Z,39.70
2018-06-30T10:04:20.512Z,39.90
2018-06-30T10:06:49.549Z,39.10
2018-06-30T10:09:17.835Z,39.00
2018-06-30T10:11:46.190Z,39.50
2018-06-30T10:14:14.625Z,39.00
2018-06-30T10:16:42.902Z,39.00
2018-06-30T10:19:11.200Z,39.70
2018-06-30T10:21:39.454Z,38.90
2018-06-30T10:24:07.871Z,38.90
2018-06-30T10:26:36.177Z,38.50
2018-06-30T10:29:04.605Z,37.30
2018-06-30T10:31:32.867Z,37.20
2018-06-30T10:34:01.140Z,36.90
2018-06-30T10:36:29.538Z,37.10
2018-06-30T10:38:57.806Z,38.40
2018-06-30T10:41:26.131Z,37.90
2018-06-30T10:43:54.470Z,38.40
2018-06-30T10:46:22.763Z,38.50
2018-06-30T10:48:51.023Z,38.50
2018-06-30T10:51:19.307Z,38.30
2018-06-30T10:53:47.607Z,39.20
2018-06-30T10:56:15.871Z,38.40
2018-06-30T10:58:44.175Z,37.10
2018-06-30T11:01:12.434Z,37.40
2018-06-30T11:03:40.707Z,37.40
2018-06-30T11:06:09.035Z,37.80
2018-06-30T11:08:38.927Z,37.90
2018-06-30T11:11:07.275Z,38.10
2018-06-30T11:13:35.626Z,38.20
2018-06-30T11:18:32.031Z,38.30
2018-06-30T11:21:00.342Z,38.40
2018-06-30T11:23:29.389Z,38.10
2018-06-30T11:25:57.713Z,37.50
2018-06-30T11:28:26.138Z,36.40
2018-06-30T11:30:54.443Z,36.40
2018-06-30T11:33:22.730Z,36.70
2018-06-30T11:35:51.006Z,35.70
2018-06-30T11:38:19.294Z,35.70
2018-06-30T11:40:47.646Z,36.00
2018-06-30T11:43:15.918Z,35.10
2018-06-30T11:45:44.223Z,34.40
2018-06-30T11:48:12.520Z,34.30
2018-06-30T11:50:40.828Z,34.40
2018-06-30T11:53:09.178Z,34.70
2018-06-30T11:55:37.560Z,34.60
2018-06-30T11:58:06.114Z,34.80
2018-06-30T12:00:34.406Z,34.90
2018-06-30T12:03:02.694Z,35.10
2018-06-30T12:05:30.968Z,33.90
2018-06-30T12:07:59.245Z,33.90
2018-06-30T12:10:27.530Z,33.70
2018-06-30T12:12:55.900Z,33.00
2018-06-30T12:15:24.171Z,32.90
2018-06-30T12:17:52.518Z,33.30
2018-06-30T12:22:49.047Z,33.00
2018-06-30T12:25:17.610Z,33.20
2018-06-30T12:27:45.964Z,33.60
2018-06-30T12:30:14.723Z,33.00
2018-06-30T12:32:42.992Z,33.20
2018-06-30T12:35:11.429Z,32.40
2018-06-30T12:37:40.447Z,31.90
2018-06-30T12:40:09.419Z,32.20
2018-06-30T12:42:37.739Z,32.70
2018-06-30T12:45:06.205Z,33.00
2018-06-30T12:47:34.559Z,33.40
2018-06-30T12:50:02.905Z,33.60
2018-06-30T12:52:31.290Z,33.70
2018-06-30T12:54:59.707Z,34.10
2018-06-30T12:57:28.097Z,33.90
2018-06-30T12:59:56.380Z,33.80
2018-06-30T13:02:24.750Z,33.50
2018-06-30T13:04:53.167Z,33.70
2018-06-30T13:07:21.478Z,33.90
2018-06-30T13:09:49.844Z,33.10
2018-06-30T13:12:18.137Z,33.60
2018-06-30T13:14:46.635Z,33.40
2018-06-30T13:17:15.163Z,32.80
2018-06-30T13:19:43.460Z,33.50
2018-06-30T13:22:12.139Z,33.40
2018-06-30T13:24:41.893Z,32.80
2018-06-30T13:27:10.238Z,32.90
2018-06-30T13:29:38.678Z,32.90
2018-06-30T13:32:07.161Z,32.90
2018-06-30T13:34:35.456Z,32.90
2018-06-30T13:37:03.882Z,32.40
2018-06-30T13:39:32.189Z,32.20
2018-06-30T13:44:40.254Z,31.80
2018-06-30T13:47:11.171Z,31.80
2018-06-30T13:49:39.536Z,31.70
2018-06-30T13:52:07.873Z,31.50
2018-06-30T13:54:36.208Z,31.50
2018-06-30T13:57:04.502Z,31.60
2018-06-30T13:59:32.898Z,31.30
2018-06-30T14:02:01.170Z,31.20
2018-06-30T14:04:29.549Z,31.00
2018-06-30T14:06:57.949Z,31.20
2018-06-30T14:09:26.195Z,31.20
2018-06-30T14:14:22.600Z,30.50
2018-06-30T14:16:50.925Z,30.10
2018-06-30T14:19:19.487Z,30.20
2018-06-30T14:21:47.744Z,30.20
2018-06-30T14:24:16.156Z,29.90
2018-06-30T14:26:44.405Z,29.60
2018-06-30T14:29:12.677Z,29.50
2018-06-30T14:31:40.989Z,29.30
2018-06-30T14:36:37.234Z,29.20
2018-06-30T14:39:09.649Z,29.00
2018-06-30T14:41:38.223Z,28.60
2018-06-30T14:44:06.520Z,28.50
2018-06-30T14:46:34.949Z,28.40
2018-06-30T14:49:03.792Z,28.40
2018-06-30T14:51:32.177Z,28.20
2018-06-30T14:54:00.445Z,28.20
2018-06-30T14:56:29.344Z,28.20
2018-06-30T14:58:57.726Z,28.20
2018-06-30T15:01:26.196Z,28.00
2018-06-30T15:03:54.509Z,27.80
2018-06-30T15:08:50.784Z,27.60
2018-06-30T15:11:19.020Z,27.60
2018-06-30T15:13:47.476Z,27.60
2018-06-30T15:16:15.717Z,27.50
2018-06-30T15:18:45.000Z,27.50
2018-06-30T15:21:13.196Z,27.60
2018-06-30T15:23:41.448Z,27.60
2018-06-30T15:26:09.753Z,27.50
2018-06-30T15:28:38.105Z,27.40
2018-06-30T15:31:06.649Z,27.20
2018-06-30T15:33:34.893Z,26.90
2018-06-30T15:36:04.819Z,26.90
2018-06-30T15:38:33.044Z,26.90
2018-06-30T15:41:01.359Z,26.80
2018-06-30T15:43:29.638Z,26.70
2018-06-30T15:45:57.885Z,26.50
2018-06-30T15:48:26.297Z,26.60
2018-06-30T15:50:54.520Z,26.50
2018-06-30T15:55:50.777Z,26.30
2018-06-30T15:58:19.153Z,26.30
2018-06-30T16:00:47.456Z,26.30
2018-06-30T16:03:15.777Z,26.20
2018-06-30T16:05:44.117Z,26.10
2018-06-30T16:08:12.412Z,26.00
2018-06-30T16:10:40.724Z,25.90
2018-06-30T16:13:09.610Z,25.90
2018-06-30T16:18:06.578Z,25.70
2018-06-30T16:20:34.918Z,25.50
2018-06-30T16:23:03.236Z,25.60
2018-06-30T16:25:31.498Z,25.40
2018-06-30T16:27:59.822Z,25.40
2018-06-30T16:30:28.147Z,25.40
2018-06-30T16:32:56.456Z,25.20
2018-06-30T17:19:06.432Z,25.20
2018-06-30T17:21:35.035Z,23.80
2018-06-30T17:24:03.753Z,23.70
2018-06-30T17:26:32.108Z,23.60
2018-06-30T17:29:00.805Z,23.50
2018-06-30T17:31:29.134Z,23.40
2018-06-30T17:33:57.549Z,23.40
2018-06-30T17:36:26.042Z,23.30
2018-06-30T17:38:54.344Z,23.20
2018-06-30T17:41:22.662Z,23.20
2018-06-30T17:46:19.014Z,23.10
2018-06-30T17:51:15.419Z,23.00
2018-06-30T17:53:43.705Z,22.90
2018-06-30T17:56:12.013Z,22.70
2018-06-30T17:58:40.394Z,22.70
2018-06-30T18:01:09.514Z,22.60
2018-06-30T18:03:37.837Z,22.50
2018-06-30T18:06:06.390Z,22.50
2018-06-30T18:08:34.916Z,22.40
2018-06-30T18:11:04.407Z,22.30
2018-06-30T18:13:32.971Z,22.20
2018-06-30T18:16:01.530Z,22.20
2018-06-30T18:18:30.472Z,22.10
2018-06-30T18:20:58.818Z,22.00
2018-06-30T18:23:27.174Z,21.90
2018-06-30T18:25:55.460Z,21.90
2018-06-30T18:28:23.765Z,21.80
2018-06-30T18:30:52.035Z,21.80
2018-06-30T18:33:20.342Z,21.70
2018-06-30T18:35:48.640Z,21.60
2018-06-30T18:38:17.125Z,21.50
2018-06-30T18:40:45.621Z,21.40
2018-06-30T18:45:41.993Z,21.30
2018-06-30T18:48:10.336Z,21.20
2018-06-30T18:50:38.599Z,21.10
2018-06-30T18:53:06.852Z,21.00
2018-06-30T18:55:35.208Z,20.80
2018-06-30T18:58:03.559Z,20.80
2018-06-30T19:00:32.004Z,20.70
2018-06-30T19:03:00.304Z,20.60
2018-06-30T19:05:28.645Z,20.40
2018-06-30T19:07:56.978Z,20.40
2018-06-30T19:10:25.403Z,20.30
2018-06-30T19:12:53.541Z,20.20
2018-06-30T19:15:21.812Z,20.00
2018-06-30T19:17:50.130Z,19.90
2018-06-30T19:20:18.559Z,19.90
2018-06-30T19:22:46.896Z,19.80
2018-06-30T19:25:15.415Z,19.70
2018-06-30T19:27:43.667Z,19.50
2018-06-30T19:30:11.961Z,19.50
2018-06-30T19:32:40.250Z,19.40
2018-06-30T19:35:08.541Z,19.40
2018-06-30T19:37:36.827Z,19.30
2018-06-30T19:40:05.517Z,19.30
2018-06-30T19:42:33.896Z,19.20
2018-06-30T19:45:02.262Z,19.10
2018-06-30T19:47:30.518Z,19.10
2018-06-30T19:49:58.796Z,19.00
2018-06-30T19:52:27.061Z,18.90
2018-06-30T19:54:55.769Z,18.90
2018-06-30T19:59:52.124Z,18.80
2018-06-30T20:02:20.412Z,18.70
2018-06-30T20:04:48.692Z,18.60
2018-06-30T20:07:17.637Z,18.50
2018-06-30T20:09:45.963Z,18.50
2018-06-30T20:12:14.313Z,18.40
2018-06-30T20:17:11.050Z,18.20
2018-06-30T20:19:39.366Z,18.10
2018-06-30T20:22:08.343Z,18.00
2018-06-30T20:24:36.710Z,17.90
2018-06-30T20:27:05.245Z,17.90
2018-06-30T20:29:33.514Z,17.90
2018-06-30T20:32:01.839Z,17.90
2018-06-30T20:34:30.540Z,17.80
2018-06-30T20:36:58.884Z,17.80
2018-06-30T20:39:27.147Z,17.70
2018-06-30T20:41:55.432Z,17.70
2018-06-30T20:44:27.030Z,17.60
2018-06-30T20:46:58.754Z,17.60
2018-06-30T20:49:33.115Z,17.50
2018-06-30T20:52:04.393Z,17.40
2018-06-30T20:54:32.719Z,17.30
2018-06-30T20:57:00.993Z,17.30
2018-06-30T20:59:29.229Z,17.30
2018-06-30T21:01:57.521Z,17.30
2018-06-30T21:04:25.813Z,17.20
2018-06-30T21:06:54.112Z,17.10
2018-06-30T21:09:22.388Z,17.10
2018-06-30T21:11:50.647Z,17.10
2018-06-30T21:14:18.905Z,17.00
2018-06-30T21:16:47.168Z,17.00
2018-06-30T21:19:15.444Z,16.90
2018-06-30T21:21:43.718Z,16.90
2018-06-30T21:24:12.000Z,16.90
2018-06-30T21:26:42.161Z,16.90
2018-06-30T21:29:10.451Z,16.90
2018-06-30T21:31:38.712Z,16.80
2018-06-30T21:34:06.974Z,16.80
2018-06-30T21:36:35.283Z,16.70
2018-06-30T21:39:04.649Z,16.60
2018-06-30T21:41:32.944Z,16.50
2018-06-30T21:44:01.209Z,16.40
2018-06-30T21:48:37.017Z,16.40
2018-06-30T21:51:05.318Z,16.40
2018-06-30T21:53:33.600Z,16.30
2018-06-30T21:56:01.883Z,16.20
2018-06-30T21:58:30.154Z,16.00
2018-06-30T22:01:03.755Z,15.80
2018-06-30T22:03:32.019Z,15.60
2018-06-30T22:08:29.066Z,15.50
2018-06-30T22:10:57.496Z,15.30
2018-06-30T22:13:25.607Z,15.30
2018-06-30T22:15:54.132Z,15.30
2018-06-30T22:18:22.396Z,15.10
2018-06-30T22:20:50.663Z,15.00
2018-06-30T22:23:18.928Z,14.90
2018-06-30T22:25:47.242Z,14.80
2018-06-30T22:29:54.922Z,14.70
2018-06-30T22:32:23.190Z,14.50
2018-06-30T22:34:51.451Z,14.40
2018-06-30T22:37:19.897Z,14.20
2018-06-30T22:39:59.571Z,14.00
2018-06-30T22:42:27.839Z,14.00
2018-06-30T22:44:56.315Z,13.90
2018-06-30T22:47:24.731Z,13.70
2018-06-30T22:49:53.018Z,13.70
2018-06-30T22:52:21.289Z,13.50
2018-06-30T22:54:49.542Z,13.50
2018-06-30T22:57:17.807Z,13.50
2018-06-30T22:59:46.087Z,13.40
2018-06-30T23:02:14.370Z,13.20
2018-06-30T23:04:42.635Z,13.20
2018-06-30T23:07:10.910Z,13.10
2018-06-30T23:09:39.175Z,13.00
2018-06-30T23:12:07.450Z,12.90
2018-06-30T23:14:35.730Z,12.90
2018-06-30T23:17:04.023Z,12.70
2018-06-30T23:19:32.287Z,12.70
2018-06-30T23:22:00.560Z,12.60
2018-06-30T23:24:28.840Z,12.60
2018-06-30T23:26:57.290Z,12.50
2018-06-30T23:29:25.551Z,12.40
2018-06-30T23:31:53.829Z,12.40
2018-06-30T23:34:22.280Z,12.50
2018-06-30T23:36:50.554Z,12.40
2018-06-30T23:39:18.818Z,12.30
2018-06-30T23:41:47.086Z,12.30
2018-06-30T23:44:15.402Z,12.10
2018-06-30T23:46:43.661Z,12.00
2018-06-30T23:49:11.933Z,12.00
2018-06-30T23:51:40.202Z,11.90
2018-06-30T23:54:08.497Z,11.90
2018-06-30T23:56:36.755Z,11.90
2018-06-30T23:59:05.046Z,12.00
